Portada
METAR-TAF:

METAR-TAF

Aeroports :

Uruguaiana, Rio Grande do Sul, Brasil

latitud: 29-47S, longitud: 057-02W, altitud: 74 m

METAR: manca

Hora: 16:58 (18:58 UTC)

Pronòstic

L'informe es va fer fa 3 hores i 26 minuts, a les 15:32 UTC
Pronòstic vàlid del 18 a les 18 UTC al 19 a les 06 UTC
Vent 7 kt del Est/Sud-Est
Visibilitat 10 km o més
sense núvols per sota de 1500 mi sense presència de cumulonimbus.

TAF: SBUG 181532Z 1818/1906 11007KT CAVOK TX33/1819Z TN23/1906Z RMK PDW

Observacions i pronòstics meteorològics de més de 4000 aeroports (METAR i TAF).

Les estacions disponibles són els punts grocs i vermells al mapa.

Posi el ratolí al punt desitjat per veure el nom de l'estació.

Feu clic per veure les observacions i els pronòstics meteorològics.

Per canviar el mapa: feu clic els botons verds amb una creu de color negre per apropar; al botó verd amb un guió per allunyar la imatge; o en les fletxes verdes per a mapes adjacents.


METAR-TAF: